createdAt,value
2018-10-12T00:00:06.664Z,1013.72
2018-10-12T00:01:16.609Z,1013.74
2018-10-12T00:02:26.556Z,1013.69
2018-10-12T00:03:35.991Z,1013.73
2018-10-12T00:04:45.939Z,1013.73
2018-10-12T00:05:55.370Z,1013.69
2018-10-12T00:07:05.316Z,1013.74
2018-10-12T00:08:14.995Z,1013.75
2018-10-12T00:09:24.685Z,1013.74
2018-10-12T00:10:34.682Z,1013.76
2018-10-12T00:11:44.653Z,1013.78
2018-10-12T00:12:54.621Z,1013.76
2018-10-12T00:14:04.319Z,1013.71
2018-10-12T00:15:14.272Z,1013.79
2018-10-12T00:16:23.981Z,1013.75
2018-10-12T00:17:33.957Z,1013.72
2018-10-12T00:18:43.673Z,1013.74
2018-10-12T00:19:53.620Z,1013.73
2018-10-12T00:21:03.617Z,1013.73
2018-10-12T00:22:13.586Z,1013.73
2018-10-12T00:23:23.535Z,1013.72
2018-10-12T00:24:33.488Z,1013.72
2018-10-12T00:25:43.429Z,1013.71
2018-10-12T00:26:53.398Z,1013.74
2018-10-12T00:28:03.360Z,1013.68
2018-10-12T00:29:13.309Z,1013.69
2018-10-12T00:30:23.256Z,1013.71
2018-10-12T00:31:33.205Z,1013.67
2018-10-12T00:32:43.153Z,1013.69
2018-10-12T00:33:52.850Z,1013.68
2018-10-12T00:35:02.535Z,1013.71
2018-10-12T00:36:12.237Z,1013.7
2018-10-12T00:37:22.192Z,1013.71
2018-10-12T00:38:32.143Z,1013.68
2018-10-12T00:39:42.089Z,1013.73
2018-10-12T00:40:52.041Z,1013.71
2018-10-12T00:42:01.746Z,1013.71
2018-10-12T00:43:11.703Z,1013.73
2018-10-12T00:44:21.653Z,1013.79
2018-10-12T00:45:31.599Z,1013.73
2018-10-12T00:46:41.546Z,1013.74
2018-10-12T00:47:51.220Z,1013.76
2018-10-12T00:49:00.656Z,1013.73
2018-10-12T00:50:10.618Z,1013.75
2018-10-12T00:51:20.576Z,1013.78
2018-10-12T00:52:30.282Z,1013.77
2018-10-12T00:53:40.256Z,1013.76
2018-10-12T00:54:50.202Z,1013.84
2018-10-12T00:56:00.167Z,1013.83
2018-10-12T00:57:10.123Z,1013.8
2018-10-12T00:58:19.845Z,1013.79
2018-10-12T00:59:29.536Z,1013.8
2018-10-12T01:00:39.469Z,1013.78
2018-10-12T01:01:49.407Z,1013.76
2018-10-12T01:02:59.094Z,1013.81
2018-10-12T01:04:09.039Z,1013.77
2018-10-12T01:05:18.746Z,1013.8
2018-10-12T01:06:28.766Z,1013.84
2018-10-12T01:07:38.931Z,1013.86
2018-10-12T01:08:48.876Z,1013.87
2018-10-12T01:09:58.811Z,1013.85
2018-10-12T01:11:08.799Z,1013.85
2018-10-12T01:12:18.837Z,1013.86
2018-10-12T01:13:29.062Z,1013.88
2018-10-12T01:14:39.059Z,1013.86
2018-10-12T01:15:49.014Z,1013.87
2018-10-12T01:16:58.959Z,1013.9
2018-10-12T01:18:08.653Z,1013.87
2018-10-12T01:19:18.602Z,1013.91
2018-10-12T01:20:28.553Z,1013.94
2018-10-12T01:21:38.498Z,1013.93
2018-10-12T01:22:48.470Z,1013.91
2018-10-12T01:23:58.433Z,1013.94
2018-10-12T01:25:08.391Z,1013.94
2018-10-12T01:26:18.346Z,1013.94
2018-10-12T01:27:28.028Z,1013.92
2018-10-12T01:28:37.973Z,1013.94
2018-10-12T01:29:47.906Z,1013.92
2018-10-12T01:30:57.854Z,1013.93
2018-10-12T01:32:07.815Z,1013.98
2018-10-12T01:33:17.755Z,1013.96
2018-10-12T01:34:27.698Z,1013.97
2018-10-12T01:35:37.654Z,1013.99
2018-10-12T01:36:47.649Z,1014.01
2018-10-12T01:37:57.353Z,1014
2018-10-12T01:39:07.311Z,1013.98
2018-10-12T01:40:16.998Z,1013.98
2018-10-12T01:41:26.687Z,1014.01
2018-10-12T01:42:36.381Z,1014.02
2018-10-12T01:43:46.326Z,1014.03
2018-10-12T01:44:56.019Z,1014.05
2018-10-12T01:46:05.979Z,1014.03
2018-10-12T01:47:15.688Z,1014.02
2018-10-12T01:48:25.386Z,1014.04
2018-10-12T01:49:35.090Z,1014.08
2018-10-12T01:50:44.788Z,1014.08
2018-10-12T01:51:54.518Z,1014.09
2018-10-12T01:53:04.485Z,1014.15
2018-10-12T01:54:14.178Z,1014.12
2018-10-12T01:55:24.128Z,1014.1
2018-10-12T01:56:34.068Z,1014.11
2018-10-12T01:57:44.078Z,1014.12
2018-10-12T01:58:54.023Z,1014.12
2018-10-12T02:00:03.982Z,1014.1
2018-10-12T02:01:13.662Z,1014.1
2018-10-12T02:02:23.366Z,1014.08
2018-10-12T02:03:33.310Z,1014.11
2018-10-12T02:04:43.267Z,1014.13
2018-10-12T02:05:53.218Z,1014.13
2018-10-12T02:07:03.172Z,1014.17
2018-10-12T02:08:13.131Z,1014.16
2018-10-12T02:09:23.081Z,1014.17
2018-10-12T02:10:32.810Z,1014.17
2018-10-12T02:11:42.762Z,1014.13
2018-10-12T02:12:52.467Z,1014.16
2018-10-12T02:14:02.411Z,1014.16
2018-10-12T02:15:12.099Z,1014.13
2018-10-12T02:16:22.045Z,1014.11
2018-10-12T02:17:31.993Z,1014.23
2018-10-12T02:18:41.948Z,1014.2
2018-10-12T02:19:51.896Z,1014.25
2018-10-12T02:21:01.866Z,1014.24
2018-10-12T02:22:11.812Z,1014.25
2018-10-12T02:23:21.251Z,1014.21
2018-10-12T02:24:30.700Z,1014.2
2018-10-12T02:25:40.645Z,1014.22
2018-10-12T02:26:50.602Z,1014.22
2018-10-12T02:28:00.611Z,1014.23
2018-10-12T02:29:10.052Z,1014.23
2018-10-12T02:30:19.754Z,1014.27
2018-10-12T02:31:29.441Z,1014.27
2018-10-12T02:32:39.403Z,1014.27
2018-10-12T02:33:49.361Z,1014.27
2018-10-12T02:34:59.312Z,1014.29
2018-10-12T02:36:08.743Z,1014.27
2018-10-12T02:37:18.424Z,1014.25
2018-10-12T02:38:28.378Z,1014.27
2018-10-12T02:39:38.325Z,1014.27
2018-10-12T02:40:48.308Z,1014.25
2018-10-12T02:41:58.270Z,1014.3
2018-10-12T02:43:08.234Z,1014.29
2018-10-12T02:44:18.187Z,1014.3
2018-10-12T02:45:28.179Z,1014.37
2018-10-12T02:46:38.132Z,1014.38
2018-10-12T02:47:48.120Z,1014.38
2018-10-12T02:48:58.069Z,1014.34
2018-10-12T02:50:08.031Z,1014.38
2018-10-12T02:51:18.002Z,1014.35
2018-10-12T02:52:27.690Z,1014.36
2018-10-12T02:53:37.638Z,1014.39
2018-10-12T02:54:47.595Z,1014.42
2018-10-12T02:55:57.294Z,1014.44
2018-10-12T02:57:06.720Z,1014.43
2018-10-12T02:58:16.677Z,1014.42
2018-10-12T02:59:26.629Z,1014.46
2018-10-12T03:00:36.590Z,1014.44
2018-10-12T03:01:46.551Z,1014.45
2018-10-12T03:02:56.255Z,1014.44
2018-10-12T03:04:05.941Z,1014.4
2018-10-12T03:05:15.912Z,1014.43
2018-10-12T03:06:25.881Z,1014.41
2018-10-12T03:07:35.859Z,1014.4
2018-10-12T03:08:45.813Z,1014.37
2018-10-12T03:09:55.503Z,1014.37
2018-10-12T03:11:05.457Z,1014.41
2018-10-12T03:12:15.144Z,1014.4
2018-10-12T03:13:24.831Z,1014.47
2018-10-12T03:14:34.283Z,1014.45
2018-10-12T03:15:44.237Z,1014.47
2018-10-12T03:16:53.956Z,1014.47
2018-10-12T03:18:03.667Z,1014.47
2018-10-12T03:19:13.111Z,1014.47
2018-10-12T03:20:22.837Z,1014.5
2018-10-12T03:21:32.537Z,1014.5
2018-10-12T03:22:42.497Z,1014.54
2018-10-12T03:23:52.445Z,1014.57
2018-10-12T03:25:01.870Z,1014.51
2018-10-12T03:26:11.829Z,1014.5
2018-10-12T03:27:21.777Z,1014.52
2018-10-12T03:28:31.726Z,1014.51
2018-10-12T03:29:41.685Z,1014.48
2018-10-12T03:30:51.619Z,1014.47
2018-10-12T03:32:01.067Z,1014.45
2018-10-12T03:33:11.037Z,1014.48
2018-10-12T03:34:20.717Z,1014.44
2018-10-12T03:35:29.898Z,1014.46
2018-10-12T03:36:39.851Z,1014.44
2018-10-12T03:37:49.797Z,1014.43
2018-10-12T03:38:59.743Z,1014.44
2018-10-12T03:40:09.451Z,1014.43
2018-10-12T03:41:19.391Z,1014.42
2018-10-12T03:42:29.104Z,1014.45
2018-10-12T03:43:38.805Z,1014.4
2018-10-12T03:44:48.756Z,1014.4
2018-10-12T03:45:58.709Z,1014.45
2018-10-12T03:47:08.649Z,1014.46
2018-10-12T03:48:18.604Z,1014.45
2018-10-12T03:49:28.303Z,1014.49
2018-10-12T03:50:38.257Z,1014.47
2018-10-12T03:51:48.234Z,1014.49
2018-10-12T03:52:58.434Z,1014.47
2018-10-12T03:54:08.393Z,1014.44
2018-10-12T03:55:18.352Z,1014.46
2018-10-12T03:56:28.302Z,1014.49
2018-10-12T03:57:38.044Z,1014.46
2018-10-12T03:58:47.749Z,1014.5
2018-10-12T03:59:57.440Z,1014.54
2018-10-12T04:01:07.396Z,1014.61
2018-10-12T04:02:17.344Z,1014.61
2018-10-12T04:03:27.030Z,1014.56
2018-10-12T04:04:36.979Z,1014.61
2018-10-12T04:05:46.926Z,1014.63
2018-10-12T04:06:56.873Z,1014.62
2018-10-12T04:08:06.568Z,1014.6
2018-10-12T04:09:16.284Z,1014.61
2018-10-12T04:10:26.244Z,1014.6
2018-10-12T04:11:35.990Z,1014.59
2018-10-12T04:12:45.944Z,1014.61
2018-10-12T04:13:55.649Z,1014.62
2018-10-12T04:15:05.346Z,1014.64
2018-10-12T04:16:15.034Z,1014.65
2018-10-12T04:17:24.978Z,1014.67
2018-10-12T04:18:34.937Z,1014.71
2018-10-12T04:19:44.878Z,1014.73
2018-10-12T04:20:54.823Z,1014.7
2018-10-12T04:22:04.769Z,1014.72
2018-10-12T04:23:14.466Z,1014.72
2018-10-12T04:24:24.423Z,1014.71
2018-10-12T04:25:34.442Z,1014.7
2018-10-12T04:26:44.396Z,1014.7
2018-10-12T04:27:54.339Z,1014.71
2018-10-12T04:29:04.298Z,1014.73
2018-10-12T04:30:13.979Z,1014.77
2018-10-12T04:31:23.927Z,1014.77
2018-10-12T04:32:33.892Z,1014.78
2018-10-12T04:33:43.595Z,1014.76
2018-10-12T04:34:53.546Z,1014.82
2018-10-12T04:36:03.510Z,1014.84
2018-10-12T04:37:13.202Z,1014.79
2018-10-12T04:38:22.909Z,1014.87
2018-10-12T04:39:32.859Z,1014.86
2018-10-12T04:40:42.556Z,1014.87
2018-10-12T04:41:52.514Z,1014.88
2018-10-12T04:43:02.212Z,1014.95
2018-10-12T04:44:12.157Z,1014.94
2018-10-12T04:45:22.115Z,1014.95
2018-10-12T04:46:32.057Z,1014.93
2018-10-12T04:47:41.762Z,1014.95
2018-10-12T04:48:51.729Z,1014.98
2018-10-12T04:50:01.698Z,1015.01
2018-10-12T04:51:11.655Z,1015.02
2018-10-12T04:52:21.347Z,1015.06
2018-10-12T04:53:31.299Z,1015.04
2018-10-12T04:54:41.453Z,1015.02
2018-10-12T04:55:51.168Z,1015.03
2018-10-12T04:57:01.194Z,1015.06
2018-10-12T04:58:11.146Z,1015.03
2018-10-12T04:59:20.831Z,1015.05
2018-10-12T05:00:30.787Z,1015.06
2018-10-12T05:01:40.869Z,1015.06
2018-10-12T05:02:50.817Z,1015.01
2018-10-12T05:04:00.533Z,1015.06
2018-10-12T05:05:10.469Z,1015.05
2018-10-12T05:06:20.429Z,1015.08
2018-10-12T05:07:30.394Z,1015.09
2018-10-12T05:08:40.668Z,1015.07
2018-10-12T05:09:50.623Z,1015.1
2018-10-12T05:10:59.864Z,1015.11
2018-10-12T05:12:09.824Z,1015.16
2018-10-12T05:13:19.528Z,1015.19
2018-10-12T05:14:29.236Z,1015.18
2018-10-12T05:15:39.000Z,1015.17
2018-10-12T05:16:48.954Z,1015.23
2018-10-12T05:17:58.910Z,1015.17
2018-10-12T05:19:08.610Z,1015.2
2018-10-12T05:20:18.569Z,1015.22
2018-10-12T05:21:28.283Z,1015.27
2018-10-12T05:22:38.255Z,1015.32
2018-10-12T05:23:48.234Z,1015.29
2018-10-12T05:24:57.945Z,1015.32
2018-10-12T05:26:07.663Z,1015.32
2018-10-12T05:27:17.368Z,1015.33
2018-10-12T05:28:27.069Z,1015.32
2018-10-12T05:29:37.048Z,1015.38
2018-10-12T05:30:46.761Z,1015.33
2018-10-12T05:31:56.734Z,1015.36
2018-10-12T05:33:06.700Z,1015.37
2018-10-12T05:34:16.661Z,1015.35
2018-10-12T05:35:26.612Z,1015.34
2018-10-12T05:36:36.557Z,1015.34
2018-10-12T05:37:46.242Z,1015.35
2018-10-12T05:38:56.220Z,1015.41
2018-10-12T05:40:05.893Z,1015.41
2018-10-12T05:41:15.850Z,1015.37
2018-10-12T05:42:25.289Z,1015.44
2018-10-12T05:43:35.344Z,1015.43
2018-10-12T05:44:45.667Z,1015.47
2018-10-12T05:45:55.627Z,1015.5
2018-10-12T05:47:05.612Z,1015.51
2018-10-12T05:48:15.574Z,1015.54
2018-10-12T05:49:25.527Z,1015.52
2018-10-12T05:50:35.474Z,1015.58
2018-10-12T05:51:45.436Z,1015.58
2018-10-12T05:52:55.401Z,1015.59
2018-10-12T05:54:05.359Z,1015.61
2018-10-12T05:55:15.313Z,1015.63
2018-10-12T05:56:25.271Z,1015.64
2018-10-12T05:57:35.214Z,1015.65
2018-10-12T05:58:45.243Z,1015.65
2018-10-12T05:59:54.936Z,1015.67
2018-10-12T06:01:04.696Z,1015.68
2018-10-12T06:02:14.936Z,1015.69
2018-10-12T06:03:24.631Z,1015.7
2018-10-12T06:04:34.596Z,1015.73
2018-10-12T06:05:44.601Z,1015.68
2018-10-12T06:06:54.290Z,1015.72
2018-10-12T06:08:04.244Z,1015.72
2018-10-12T06:09:14.211Z,1015.68
2018-10-12T06:10:24.535Z,1015.73
2018-10-12T06:11:34.501Z,1015.75
2018-10-12T06:12:44.511Z,1015.76
2018-10-12T06:13:54.286Z,1015.73
2018-10-12T06:15:04.276Z,1015.79
2018-10-12T06:16:14.249Z,1015.78
2018-10-12T06:17:23.969Z,1015.76
2018-10-12T06:18:33.423Z,1015.8
2018-10-12T06:19:43.126Z,1015.83
2018-10-12T06:20:52.901Z,1015.81
2018-10-12T06:22:02.860Z,1015.8
2018-10-12T06:23:12.822Z,1015.8
2018-10-12T06:24:22.541Z,1015.82
2018-10-12T06:25:32.498Z,1015.82
2018-10-12T06:26:42.481Z,1015.84
2018-10-12T06:27:52.825Z,1015.82
2018-10-12T06:29:02.537Z,1015.81
2018-10-12T06:30:11.976Z,1015.82
2018-10-12T06:31:21.942Z,1015.84
2018-10-12T06:32:31.640Z,1015.84
2018-10-12T06:33:41.659Z,1015.84
2018-10-12T06:34:51.618Z,1015.88
2018-10-12T06:36:01.593Z,1015.87
2018-10-12T06:37:11.577Z,1015.89
2018-10-12T06:38:21.554Z,1015.93
2018-10-12T06:39:31.525Z,1015.88
2018-10-12T06:40:41.514Z,1015.86
2018-10-12T06:41:51.931Z,1015.91
2018-10-12T06:43:02.227Z,1015.91
2018-10-12T06:44:11.978Z,1015.97
2018-10-12T06:45:22.649Z,1015.97
2018-10-12T06:46:32.716Z,1015.97
2018-10-12T06:47:42.804Z,1016
2018-10-12T06:48:52.767Z,1016.01
2018-10-12T06:50:02.743Z,1015.97
2018-10-12T06:51:12.448Z,1016.03
2018-10-12T06:52:22.159Z,1015.99
2018-10-12T06:53:31.853Z,1016
2018-10-12T06:54:41.556Z,1016.01
2018-10-12T06:55:51.521Z,1016.05
2018-10-12T06:57:01.256Z,1016.08
2018-10-12T06:58:11.228Z,1016.1
2018-10-12T06:59:20.944Z,1016.12
2018-10-12T07:00:30.650Z,1016.14
2018-10-12T07:01:40.645Z,1016.17
2018-10-12T07:02:50.645Z,1016.19
2018-10-12T07:04:00.093Z,1016.21
2018-10-12T07:05:10.061Z,1016.21
2018-10-12T07:06:20.026Z,1016.2
2018-10-12T07:07:29.734Z,1016.21
2018-10-12T07:08:39.694Z,1016.17
2018-10-12T07:09:49.670Z,1016.14
2018-10-12T07:10:59.655Z,1016.15
2018-10-12T07:12:09.651Z,1016.21
2018-10-12T07:13:19.625Z,1016.19
2018-10-12T07:14:29.357Z,1016.27
2018-10-12T07:15:39.336Z,1016.3
2018-10-12T07:16:49.340Z,1016.33
2018-10-12T07:17:59.315Z,1016.35
2018-10-12T07:19:09.291Z,1016.39
2018-10-12T07:20:19.290Z,1016.4
2018-10-12T07:21:29.269Z,1016.51
2018-10-12T07:22:38.987Z,1016.47
2018-10-12T07:23:48.696Z,1016.5
2018-10-12T07:24:58.206Z,1016.51
2018-10-12T07:26:07.921Z,1016.54
2018-10-12T07:27:17.887Z,1016.55
2018-10-12T07:28:27.873Z,1016.53
2018-10-12T07:29:37.624Z,1016.49
2018-10-12T07:30:47.569Z,1016.51
2018-10-12T07:31:57.516Z,1016.54
2018-10-12T07:33:07.490Z,1016.53
2018-10-12T07:34:17.541Z,1016.48
2018-10-12T07:35:27.236Z,1016.5
2018-10-12T07:36:37.207Z,1016.53
2018-10-12T07:37:47.209Z,1016.56
2018-10-12T07:38:57.240Z,1016.51
2018-10-12T07:40:06.944Z,1016.53
2018-10-12T07:41:16.705Z,1016.48
2018-10-12T07:42:27.434Z,1016.5
2018-10-12T07:43:38.131Z,1016.44
2018-10-12T07:44:48.087Z,1016.51
2018-10-12T07:45:57.780Z,1016.5
2018-10-12T07:47:07.532Z,1016.47
2018-10-12T07:48:17.826Z,1016.49
2018-10-12T07:49:27.877Z,1016.53
2018-10-12T07:50:37.610Z,1016.59
2018-10-12T07:51:47.300Z,1016.64
2018-10-12T07:52:57.272Z,1016.63
2018-10-12T07:54:07.531Z,1016.65
2018-10-12T07:55:17.486Z,1016.73
2018-10-12T07:56:27.180Z,1016.69
2018-10-12T07:57:37.138Z,1016.76
2018-10-12T07:58:47.167Z,1016.76
2018-10-12T07:59:57.177Z,1016.75
2018-10-12T08:01:07.568Z,1016.81
2018-10-12T08:02:17.540Z,1016.82
2018-10-12T08:03:27.493Z,1016.81
2018-10-12T08:04:37.474Z,1016.85
2018-10-12T08:05:47.206Z,1016.88
2018-10-12T08:06:57.196Z,1016.93
2018-10-12T08:08:06.908Z,1016.91
2018-10-12T08:09:16.910Z,1016.97
2018-10-12T08:10:26.939Z,1017
2018-10-12T08:11:37.137Z,1017
2018-10-12T08:12:47.102Z,1017.04
2018-10-12T08:13:57.192Z,1017.01
2018-10-12T08:15:07.717Z,1017.04
2018-10-12T08:16:17.412Z,1017.09
2018-10-12T08:17:26.869Z,1017.06
2018-10-12T08:18:36.589Z,1017.09
2018-10-12T08:19:46.554Z,1017.11
2018-10-12T08:20:56.278Z,1017.14
2018-10-12T08:22:06.219Z,1017.11
2018-10-12T08:23:16.183Z,1017.14
2018-10-12T08:24:26.160Z,1017.16
2018-10-12T08:25:36.153Z,1017.2
2018-10-12T08:26:45.846Z,1017.19
2018-10-12T08:27:55.963Z,1017.22
2018-10-12T08:29:05.931Z,1017.2
2018-10-12T08:30:15.958Z,1017.25
2018-10-12T08:31:25.939Z,1017.27
2018-10-12T08:32:36.588Z,1017.29
2018-10-12T08:33:46.595Z,1017.27
2018-10-12T08:34:56.317Z,1017.22
2018-10-12T08:36:06.292Z,1017.21
2018-10-12T08:37:16.442Z,1017.25
2018-10-12T08:38:26.430Z,1017.23
2018-10-12T08:39:36.162Z,1017.28
2018-10-12T08:40:46.108Z,1017.27
2018-10-12T08:41:55.872Z,1017.3
2018-10-12T08:43:06.083Z,1017.34
2018-10-12T08:44:15.856Z,1017.33
2018-10-12T08:45:25.844Z,1017.37
2018-10-12T08:46:35.817Z,1017.34
2018-10-12T08:47:45.553Z,1017.36
2018-10-12T08:48:55.553Z,1017.42
2018-10-12T08:50:05.554Z,1017.45
2018-10-12T08:51:15.577Z,1017.49
2018-10-12T08:52:25.558Z,1017.51
2018-10-12T08:53:35.282Z,1017.54
2018-10-12T08:54:45.496Z,1017.53
2018-10-12T08:55:55.475Z,1017.55
2018-10-12T08:57:05.462Z,1017.53
2018-10-12T08:58:15.170Z,1017.49
2018-10-12T08:59:24.900Z,1017.53
2018-10-12T09:00:34.611Z,1017.51
2018-10-12T09:01:44.608Z,1017.53
2018-10-12T09:02:54.417Z,1017.56
2018-10-12T09:04:04.920Z,1017.57
2018-10-12T09:05:14.632Z,1017.62
2018-10-12T09:06:24.835Z,1017.62
2018-10-12T09:07:34.802Z,1017.55
2018-10-12T09:08:44.506Z,1017.51
2018-10-12T09:09:54.549Z,1017.49
2018-10-12T09:11:04.535Z,1017.55
2018-10-12T09:12:14.488Z,1017.52
2018-10-12T09:13:24.211Z,1017.53
2018-10-12T09:14:34.169Z,1017.52
2018-10-12T09:15:43.871Z,1017.52
2018-10-12T09:16:53.847Z,1017.53
2018-10-12T09:18:03.816Z,1017.55
2018-10-12T09:19:13.578Z,1017.59
2018-10-12T09:20:23.725Z,1017.58
2018-10-12T09:21:35.118Z,1017.52
2018-10-12T09:22:45.113Z,1017.48
2018-10-12T09:23:54.823Z,1017.52
2018-10-12T09:25:04.796Z,1017.58
2018-10-12T09:26:14.816Z,1017.64
2018-10-12T09:27:24.526Z,1017.7
2018-10-12T09:28:34.481Z,1017.78
2018-10-12T09:29:44.214Z,1017.78
2018-10-12T09:30:53.920Z,1017.78
2018-10-12T09:32:03.882Z,1017.76
2018-10-12T09:33:13.866Z,1017.71
2018-10-12T09:34:23.580Z,1017.77
2018-10-12T09:35:33.290Z,1017.73
2018-10-12T09:36:43.163Z,1017.73
2018-10-12T09:37:53.745Z,1017.75
2018-10-12T09:39:03.198Z,1017.75
2018-10-12T09:40:12.946Z,1017.74
2018-10-12T09:41:22.675Z,1017.77
2018-10-12T09:42:32.117Z,1017.81
2018-10-12T09:43:41.824Z,1017.84
2018-10-12T09:44:51.265Z,1017.87
2018-10-12T09:46:01.362Z,1017.88
2018-10-12T09:47:11.347Z,1017.84
2018-10-12T09:48:21.058Z,1017.81
2018-10-12T09:49:31.042Z,1017.78
2018-10-12T09:50:41.035Z,1017.8
2018-10-12T09:51:51.437Z,1017.78
2018-10-12T09:53:01.445Z,1017.8
2018-10-12T09:54:11.211Z,1017.75
2018-10-12T09:55:21.236Z,1017.79
2018-10-12T09:56:30.973Z,1017.79
2018-10-12T09:57:40.735Z,1017.83
2018-10-12T09:58:50.664Z,1017.86
2018-10-12T10:00:00.693Z,1017.84
2018-10-12T10:01:10.760Z,1017.88
2018-10-12T10:02:20.614Z,1017.89
2018-10-12T10:03:30.830Z,1017.91
2018-10-12T10:04:40.581Z,1017.93
2018-10-12T10:05:50.301Z,1017.94
2018-10-12T10:07:00.269Z,1017.97
2018-10-12T10:08:10.496Z,1017.98
2018-10-12T10:09:21.306Z,1017.95
2018-10-12T10:10:31.270Z,1017.91
2018-10-12T10:11:40.992Z,1017.96
2018-10-12T10:12:50.998Z,1017.96
2018-10-12T10:14:00.717Z,1017.91
2018-10-12T10:15:10.720Z,1017.9
2018-10-12T10:16:20.803Z,1017.95
2018-10-12T10:17:30.528Z,1017.97
2018-10-12T10:18:40.511Z,1017.96
2018-10-12T10:19:50.230Z,1017.98
2018-10-12T10:20:59.668Z,1017.95
2018-10-12T10:22:09.642Z,1017.94
2018-10-12T10:23:19.452Z,1017.87
2018-10-12T10:24:29.174Z,1017.83
2018-10-12T10:25:39.175Z,1017.82
2018-10-12T10:26:49.178Z,1017.79
2018-10-12T10:27:59.138Z,1017.84
2018-10-12T10:29:09.103Z,1017.87
2018-10-12T10:30:19.639Z,1017.82
2018-10-12T10:31:29.366Z,1017.82
2018-10-12T10:32:39.355Z,1017.82
2018-10-12T10:33:49.659Z,1017.78
2018-10-12T10:34:59.856Z,1017.77
2018-10-12T10:36:09.837Z,1017.72
2018-10-12T10:37:19.826Z,1017.69
2018-10-12T10:38:29.556Z,1017.66
2018-10-12T10:39:39.305Z,1017.62
2018-10-12T10:40:49.277Z,1017.62
2018-10-12T10:41:59.316Z,1017.62
2018-10-12T10:43:09.027Z,1017.59
2018-10-12T10:44:19.008Z,1017.61
2018-10-12T10:45:28.196Z,1017.57
2018-10-12T10:46:38.171Z,1017.59
2018-10-12T10:47:48.150Z,1017.53
2018-10-12T10:48:58.114Z,1017.56
2018-10-12T10:50:08.141Z,1017.54
2018-10-12T10:51:18.153Z,1017.5
2018-10-12T10:52:28.109Z,1017.45
2018-10-12T10:53:37.838Z,1017.44
2018-10-12T10:54:47.917Z,1017.46
2018-10-12T10:55:57.626Z,1017.42
2018-10-12T10:57:07.644Z,1017.41
2018-10-12T10:58:17.653Z,1017.37
2018-10-12T10:59:27.364Z,1017.41
2018-10-12T11:00:37.364Z,1017.44
2018-10-12T11:01:47.488Z,1017.5
2018-10-12T11:02:57.467Z,1017.57
2018-10-12T11:04:07.445Z,1017.6
2018-10-12T11:05:17.415Z,1017.63
2018-10-12T11:06:27.235Z,1017.63
2018-10-12T11:07:37.209Z,1017.69
2018-10-12T11:08:46.675Z,1017.7
2018-10-12T11:09:56.386Z,1017.7
2018-10-12T11:11:06.362Z,1017.68
2018-10-12T11:12:16.387Z,1017.68
2018-10-12T11:13:26.965Z,1017.64
2018-10-12T11:14:36.948Z,1017.64
2018-10-12T11:15:46.985Z,1017.6
2018-10-12T11:16:56.507Z,1017.57
2018-10-12T11:18:06.499Z,1017.5
2018-10-12T11:19:16.216Z,1017.49
2018-10-12T11:20:26.293Z,1017.5
2018-10-12T11:21:36.286Z,1017.48
2018-10-12T11:22:46.261Z,1017.47
2018-10-12T11:23:56.244Z,1017.45
2018-10-12T11:25:06.256Z,1017.52
2018-10-12T11:26:16.083Z,1017.53
2018-10-12T11:27:26.511Z,1017.52
2018-10-12T11:28:36.236Z,1017.52
2018-10-12T11:29:46.203Z,1017.57
2018-10-12T11:30:56.171Z,1017.54
2018-10-12T11:32:06.147Z,1017.57
2018-10-12T11:33:15.847Z,1017.57
2018-10-12T11:34:25.561Z,1017.62
2018-10-12T11:35:35.537Z,1017.59
2018-10-12T11:36:45.544Z,1017.55
2018-10-12T11:37:55.268Z,1017.57
2018-10-12T11:39:05.232Z,1017.54
2018-10-12T11:40:15.199Z,1017.57
2018-10-12T11:41:25.167Z,1017.58
2018-10-12T11:42:35.140Z,1017.56
2018-10-12T11:43:44.837Z,1017.55
2018-10-12T11:44:54.870Z,1017.56
2018-10-12T11:46:05.447Z,1017.62
2018-10-12T11:47:14.929Z,1017.6
2018-10-12T11:48:24.644Z,1017.62
2018-10-12T11:49:34.624Z,1017.65
2018-10-12T11:50:44.357Z,1017.61
2018-10-12T11:51:54.074Z,1017.59
2018-10-12T11:53:03.926Z,1017.51
2018-10-12T11:54:13.892Z,1017.53
2018-10-12T11:55:23.337Z,1017.55
2018-10-12T11:56:33.300Z,1017.48
2018-10-12T11:57:43.268Z,1017.48
2018-10-12T11:58:52.980Z,1017.48
2018-10-12T12:00:02.947Z,1017.53
2018-10-12T12:01:12.923Z,1017.62
2018-10-12T12:02:22.993Z,1017.63
2018-10-12T12:03:32.808Z,1017.64
2018-10-12T12:04:42.360Z,1017.69
2018-10-12T12:05:52.359Z,1017.72
2018-10-12T12:07:02.774Z,1017.73
2018-10-12T12:08:12.888Z,1017.74
2018-10-12T12:09:22.967Z,1017.62
2018-10-12T12:10:32.425Z,1017.65
2018-10-12T12:11:42.387Z,1017.67
2018-10-12T12:12:52.370Z,1017.7
2018-10-12T12:14:02.283Z,1017.65
2018-10-12T12:15:12.545Z,1017.68
2018-10-12T12:16:22.529Z,1017.64
2018-10-12T12:17:32.557Z,1017.7
2018-10-12T12:18:42.281Z,1017.67
2018-10-12T12:19:52.270Z,1017.65
2018-10-12T12:21:02.006Z,1017.71
2018-10-12T12:22:11.707Z,1017.65
2018-10-12T12:23:21.415Z,1017.65
2018-10-12T12:24:31.131Z,1017.67
2018-10-12T12:25:40.861Z,1017.66
2018-10-12T12:26:50.587Z,1017.68
2018-10-12T12:28:00.566Z,1017.66
2018-10-12T12:29:10.017Z,1017.65
2018-10-12T12:30:19.724Z,1017.7
2018-10-12T12:31:29.701Z,1017.62
2018-10-12T12:32:39.681Z,1017.69
2018-10-12T12:33:49.386Z,1017.68
2018-10-12T12:34:59.071Z,1017.68
2018-10-12T12:36:10.409Z,1017.69
2018-10-12T12:37:21.572Z,1017.58
2018-10-12T12:38:31.553Z,1017.61
2018-10-12T12:39:41.537Z,1017.65
2018-10-12T12:40:51.005Z,1017.64
2018-10-12T12:42:00.959Z,1017.63
2018-10-12T12:43:10.725Z,1017.67
2018-10-12T12:44:20.741Z,1017.61
2018-10-12T12:45:30.770Z,1017.62
2018-10-12T12:46:40.768Z,1017.57
2018-10-12T12:47:50.807Z,1017.58
2018-10-12T12:49:02.236Z,1017.58
2018-10-12T12:50:15.290Z,1017.6
2018-10-12T12:51:24.810Z,1017.63
2018-10-12T12:52:34.793Z,1017.59
2018-10-12T12:53:44.818Z,1017.53
2018-10-12T12:54:55.198Z,1017.57
2018-10-12T12:56:05.180Z,1017.55
2018-10-12T12:57:15.163Z,1017.56
2018-10-12T12:58:25.140Z,1017.55
2018-10-12T12:59:35.116Z,1017.56
2018-10-12T13:00:45.161Z,1017.55
2018-10-12T13:01:55.621Z,1017.54
2018-10-12T13:03:05.587Z,1017.55
2018-10-12T13:04:15.572Z,1017.51
2018-10-12T13:05:24.763Z,1017.54
2018-10-12T13:06:34.558Z,1017.54
2018-10-12T13:07:44.887Z,1017.54
2018-10-12T13:08:54.853Z,1017.57
2018-10-12T13:10:04.829Z,1017.57
2018-10-12T13:11:14.812Z,1017.57
2018-10-12T13:12:24.534Z,1017.6
2018-10-12T13:13:34.572Z,1017.55
2018-10-12T13:14:44.570Z,1017.63
2018-10-12T13:15:54.296Z,1017.6
2018-10-12T13:17:04.276Z,1017.61
2018-10-12T13:18:13.979Z,1017.62
2018-10-12T13:19:23.696Z,1017.62
2018-10-12T13:20:33.405Z,1017.63
2018-10-12T13:21:43.360Z,1017.64
2018-10-12T13:22:53.337Z,1017.66
2018-10-12T13:24:03.314Z,1017.67
2018-10-12T13:25:13.277Z,1017.63
2018-10-12T13:26:23.369Z,1017.67
2018-10-12T13:27:33.614Z,1017.67
2018-10-12T13:28:43.580Z,1017.67
2018-10-12T13:29:53.571Z,1017.66
2018-10-12T13:31:03.271Z,1017.67
2018-10-12T13:32:13.228Z,1017.68
2018-10-12T13:33:22.701Z,1017.72
2018-10-12T13:34:32.688Z,1017.72
2018-10-12T13:35:42.687Z,1017.7
2018-10-12T13:36:52.648Z,1017.71
2018-10-12T13:38:02.373Z,1017.7
2018-10-12T13:39:12.346Z,1017.68
2018-10-12T13:40:22.054Z,1017.72
2018-10-12T13:41:31.784Z,1017.75
2018-10-12T13:42:41.759Z,1017.78
2018-10-12T13:43:51.735Z,1017.81
2018-10-12T13:45:01.462Z,1017.8
2018-10-12T13:46:11.186Z,1017.81
2018-10-12T13:47:20.892Z,1017.78
2018-10-12T13:48:30.864Z,1017.81
2018-10-12T13:49:40.843Z,1017.84
2018-10-12T13:50:50.804Z,1017.86
2018-10-12T13:52:00.516Z,1017.87
2018-10-12T13:53:10.487Z,1017.85
2018-10-12T13:54:20.507Z,1017.82
2018-10-12T13:55:30.856Z,1017.81
2018-10-12T13:56:40.560Z,1017.85
2018-10-12T13:57:50.534Z,1017.85
2018-10-12T13:59:00.496Z,1017.85
2018-10-12T14:00:10.249Z,1017.86
2018-10-12T14:01:20.189Z,1017.87
2018-10-12T14:02:29.899Z,1017.87
2018-10-12T14:03:39.878Z,1017.91
2018-10-12T14:04:49.850Z,1017.93
2018-10-12T14:05:59.959Z,1017.88
2018-10-12T14:07:09.970Z,1017.96
2018-10-12T14:08:20.002Z,1017.91